Time,TemperatureF,DewpointF,PressureIn,WindDirection,WindDirectionDegrees,WindSpeedMPH,WindSpeedGustMPH,Humidity,HourlyPrecipIn,Conditions,Clouds,dailyrainin,SoftwareType,DateUTC
2013-09-06 00:05:00,63.1,62.2,29.94,SSW,202,0.0,-999.0,97,-99.99,,,0.00,Acu-Link.com,2013-09-06 04:05:00,
2013-09-06 00:20:00,63.1,62.8,29.94,SSW,202,0.0,-999.0,99,-99.99,,,0.00,Acu-Link.com,2013-09-06 04:20:00,
2013-09-06 00:35:00,63.1,62.8,29.94,SSW,202,0.0,-999.0,99,-99.99,,,0.00,Acu-Link.com,2013-09-06 04:35:00,
2013-09-06 00:50:00,63.0,62.7,29.93,SSW,202,0.0,-999.0,99,-99.99,,,0.00,Acu-Link.com,2013-09-06 04:50:00,
2013-09-06 01:05:00,62.8,62.5,29.94,SSW,202,0.0,-999.0,99,-99.99,,,0.00,Acu-Link.com,2013-09-06 05:05:00,
2013-09-06 01:21:00,62.6,62.3,29.94,SSW,202,0.0,-999.0,99,-99.99,,,0.00,Acu-Link.com,2013-09-06 05:21:00,
2013-09-06 01:36:00,62.6,62.3,29.93,SSW,202,0.0,-999.0,99,-99.99,,,0.00,Acu-Link.com,2013-09-06 05:36:00,
2013-09-06 01:51:00,62.2,61.9,29.93,SSW,202,0.0,-999.0,99,-99.99,,,0.00,Acu-Link.com,2013-09-06 05:51:00,
2013-09-06 02:06:00,62.1,61.8,29.93,SSW,202,0.0,-999.0,99,-99.99,,,0.00,Acu-Link.com,2013-09-06 06:06:00,
2013-09-06 02:21:00,61.9,61.6,29.94,SSW,202,0.0,-999.0,99,-99.99,,,0.00,Acu-Link.com,2013-09-06 06:21:00,
2013-09-06 02:37:00,61.9,61.6,29.94,SSW,202,0.0,-999.0,99,-99.99,,,0.00,Acu-Link.com,2013-09-06 06:37:00,
2013-09-06 02:52:00,62.1,61.8,29.94,SW,225,0.0,-999.0,99,-99.99,,,0.00,Acu-Link.com,2013-09-06 06:52:00,
2013-09-06 03:07:00,62.4,62.1,29.94,North,0,0.0,-999.0,99,-99.99,,,0.00,Acu-Link.com,2013-09-06 07:07:00,
2013-09-06 03:22:00,63.7,63.4,29.94,North,0,0.0,-999.0,99,-99.99,,,0.00,Acu-Link.com,2013-09-06 07:22:00,
2013-09-06 03:38:00,65.1,63.9,29.94,North,0,5.3,-999.0,96,-99.99,,,0.00,Acu-Link.com,2013-09-06 07:38:00,
2013-09-06 03:53:00,64.8,63.3,29.95,North,0,1.7,-999.0,95,-99.99,,,0.00,Acu-Link.com,2013-09-06 07:53:00,
2013-09-06 04:09:00,64.9,63.1,29.95,North,0,2.7,-999.0,94,-99.99,,,0.00,Acu-Link.com,2013-09-06 08:09:00,
2013-09-06 04:24:00,64.9,63.1,29.95,North,0,0.0,-999.0,94,-99.99,,,0.00,Acu-Link.com,2013-09-06 08:24:00,
2013-09-06 04:39:00,64.9,63.1,29.95,North,0,1.1,-999.0,94,-99.99,,,0.00,Acu-Link.com,2013-09-06 08:39:00,
2013-09-06 04:55:00,64.9,62.8,29.95,North,0,1.7,-999.0,93,-99.99,,,0.00,Acu-Link.com,2013-09-06 08:55:00,
2013-09-06 05:10:00,64.6,62.5,29.95,North,0,1.7,-999.0,93,-99.99,,,0.00,Acu-Link.com,2013-09-06 09:10:00,
2013-09-06 05:25:00,64.4,62.0,29.96,North,0,0.0,-999.0,92,-99.99,,,0.00,Acu-Link.com,2013-09-06 09:25:00,
2013-09-06 05:40:00,64.2,61.5,29.96,North,0,0.0,-999.0,91,-99.99,,,0.00,Acu-Link.com,2013-09-06 09:40:00,
2013-09-06 05:55:00,63.7,61.0,29.96,North,0,1.7,-999.0,91,-99.99,,,0.00,Acu-Link.com,2013-09-06 09:55:00,
2013-09-06 06:10:00,63.5,60.5,29.97,North,0,1.7,-999.0,90,-99.99,,,0.00,Acu-Link.com,2013-09-06 10:10:00,
2013-09-06 06:25:00,63.0,60.0,29.98,North,0,1.1,-999.0,90,-99.99,,,0.00,Acu-Link.com,2013-09-06 10:25:00,
2013-09-06 06:41:00,62.6,59.6,29.98,North,0,0.0,-999.0,90,-99.99,,,0.00,Acu-Link.com,2013-09-06 10:41:00,
2013-09-06 06:56:00,62.4,59.4,29.99,North,0,0.0,-999.0,90,-99.99,,,0.00,Acu-Link.com,2013-09-06 10:56:00,
2013-09-06 07:11:00,61.9,59.5,30.00,North,0,0.0,-999.0,92,-99.99,,,0.00,Acu-Link.com,2013-09-06 11:11:00,
2013-09-06 07:26:00,61.7,59.0,30.00,North,0,1.1,-999.0,91,-99.99,,,0.00,Acu-Link.com,2013-09-06 11:26:00,
2013-09-06 07:41:00,62.2,58.0,30.00,North,0,2.2,-999.0,86,-99.99,,,0.00,Acu-Link.com,2013-09-06 11:41:00,
2013-09-06 07:57:00,63.1,58.2,30.01,North,0,1.7,-999.0,84,-99.99,,,0.00,Acu-Link.com,2013-09-06 11:57:00,
2013-09-06 08:12:00,63.9,58.6,30.01,North,0,0.0,-999.0,83,-99.99,,,0.00,Acu-Link.com,2013-09-06 12:12:00,
2013-09-06 08:27:00,65.3,60.3,30.02,North,0,0.0,-999.0,84,-99.99,,,0.00,Acu-Link.com,2013-09-06 12:27:00,
2013-09-06 08:42:00,66.6,61.3,30.02,North,0,1.7,-999.0,83,-99.99,,,0.00,Acu-Link.com,2013-09-06 12:42:00,
2013-09-06 08:58:00,67.6,61.6,30.02,North,0,1.7,-999.0,81,-99.99,,,0.00,Acu-Link.com,2013-09-06 12:58:00,
2013-09-06 09:13:00,68.5,61.7,30.02,North,0,0.0,-999.0,79,-99.99,,,0.00,Acu-Link.com,2013-09-06 13:13:00,
2013-09-06 09:28:00,68.9,62.1,30.02,North,0,1.7,-999.0,79,-99.99,,,0.00,Acu-Link.com,2013-09-06 13:28:00,
2013-09-06 09:43:00,69.8,63.3,30.03,North,0,4.7,-999.0,80,-99.99,,,0.00,Acu-Link.com,2013-09-06 13:43:00,
2013-09-06 09:58:00,70.5,64.0,30.03,North,0,2.2,-999.0,80,-99.99,,,0.00,Acu-Link.com,2013-09-06 13:58:00,
2013-09-06 10:14:00,71.6,65.1,30.02,ESE,112,2.2,-999.0,80,-99.99,,,0.00,Acu-Link.com,2013-09-06 14:14:00,
2013-09-06 10:29:00,73.2,66.3,30.03,NNW,337,5.3,-999.0,79,-99.99,,,0.00,Acu-Link.com,2013-09-06 14:29:00,
2013-09-06 10:44:00,74.3,67.0,30.03,ESE,112,1.7,-999.0,78,-99.99,,,0.00,Acu-Link.com,2013-09-06 14:44:00,
2013-09-06 10:59:00,75.0,66.9,30.04,West,270,0.0,-999.0,76,-99.99,,,0.00,Acu-Link.com,2013-09-06 14:59:00,
2013-09-06 11:14:00,75.6,67.5,30.03,NNE,22,5.8,-999.0,76,-99.99,,,0.00,Acu-Link.com,2013-09-06 15:14:00,
2013-09-06 11:30:00,76.8,67.9,30.04,West,270,0.0,-999.0,74,-99.99,,,0.00,Acu-Link.com,2013-09-06 15:30:00,
2013-09-06 11:45:00,78.1,66.2,30.04,SSW,202,2.2,-999.0,67,-99.99,,,0.00,Acu-Link.com,2013-09-06 15:45:00,
2013-09-06 12:00:00,77.9,67.3,30.04,SSW,202,0.0,-999.0,70,-99.99,,,0.00,Acu-Link.com,2013-09-06 16:00:00,
2013-09-06 12:15:00,79.0,66.2,30.03,NE,45,0.0,-999.0,65,-99.99,,,0.00,Acu-Link.com,2013-09-06 16:15:00,
2013-09-06 12:30:00,79.7,65.5,30.03,WNW,292,2.7,-999.0,62,-99.99,,,0.00,Acu-Link.com,2013-09-06 16:30:00,
2013-09-06 12:46:00,78.4,64.7,30.03,NE,45,2.2,-999.0,63,-99.99,,,0.00,Acu-Link.com,2013-09-06 16:46:00,
2013-09-06 13:01:00,79.9,63.8,30.03,NW,315,1.7,-999.0,58,-99.99,,,0.00,Acu-Link.com,2013-09-06 17:01:00,
2013-09-06 13:16:00,79.9,64.3,30.03,NE,45,1.7,-999.0,59,-99.99,,,0.00,Acu-Link.com,2013-09-06 17:16:00,
2013-09-06 13:31:00,79.3,63.7,30.02,NNE,22,4.7,-999.0,59,-99.99,,,0.00,Acu-Link.com,2013-09-06 17:31:00,
2013-09-06 13:47:00,78.3,63.7,30.02,NNE,22,2.7,-999.0,61,-99.99,,,0.00,Acu-Link.com,2013-09-06 17:47:00,
2013-09-06 14:02:00,79.5,63.4,30.01,SW,225,1.7,-999.0,58,-99.99,,,0.00,Acu-Link.com,2013-09-06 18:02:00,
2013-09-06 14:17:00,81.3,63.0,30.01,NE,45,4.2,-999.0,54,-99.99,,,0.00,Acu-Link.com,2013-09-06 18:17:00,
2013-09-06 14:32:00,79.3,62.7,30.00,NNE,22,2.7,-999.0,57,-99.99,,,0.00,Acu-Link.com,2013-09-06 18:32:00,
2013-09-06 14:47:00,81.5,63.7,29.99,NW,315,4.2,-999.0,55,-99.99,,,0.00,Acu-Link.com,2013-09-06 18:47:00,
2013-09-06 15:03:00,82.4,63.0,29.99,East,90,2.2,-999.0,52,-99.99,,,0.00,Acu-Link.com,2013-09-06 19:03:00,
2013-09-06 15:18:00,83.3,63.3,29.98,SE,135,1.1,-999.0,51,-99.99,,,0.00,Acu-Link.com,2013-09-06 19:18:00,
2013-09-06 15:33:00,81.0,61.7,29.98,West,270,2.7,-999.0,52,-99.99,,,0.00,Acu-Link.com,2013-09-06 19:33:00,
2013-09-06 15:48:00,81.7,62.9,29.98,NNW,337,2.7,-999.0,53,-99.99,,,0.00,Acu-Link.com,2013-09-06 19:48:00,
2013-09-06 16:03:00,80.2,62.5,29.97,ESE,112,0.0,-999.0,55,-99.99,,,0.00,Acu-Link.com,2013-09-06 20:03:00,
2013-09-06 16:19:00,81.9,63.1,29.97,NW,315,2.7,-999.0,53,-99.99,,,0.00,Acu-Link.com,2013-09-06 20:19:00,
2013-09-06 16:34:00,82.0,60.3,29.96,NNW,337,2.7,-999.0,48,-99.99,,,0.00,Acu-Link.com,2013-09-06 20:34:00,
2013-09-06 16:49:00,81.5,59.9,29.96,NNE,22,6.3,-999.0,48,-99.99,,,0.00,Acu-Link.com,2013-09-06 20:49:00,
2013-09-06 17:04:00,82.2,59.9,29.96,North,0,4.7,-999.0,47,-99.99,,,0.00,Acu-Link.com,2013-09-06 21:04:00,
2013-09-06 17:19:00,83.1,59.5,29.96,East,90,3.2,-999.0,45,-99.99,,,0.00,Acu-Link.com,2013-09-06 21:19:00,
2013-09-06 17:35:00,81.7,60.7,29.95,North,0,3.7,-999.0,49,-99.99,,,0.00,Acu-Link.com,2013-09-06 21:35:00,
2013-09-06 17:50:00,80.4,63.2,29.95,SSE,157,0.0,-999.0,56,-99.99,,,0.00,Acu-Link.com,2013-09-06 21:50:00,
2013-09-06 18:05:00,85.3,62.1,29.96,SW,225,1.1,-999.0,46,-99.99,,,0.00,Acu-Link.com,2013-09-06 22:05:00,
2013-09-06 18:20:00,86.9,63.0,29.95,NNW,337,1.7,-999.0,45,-99.99,,,0.00,Acu-Link.com,2013-09-06 22:20:00,
2013-09-06 18:35:00,82.0,63.2,29.95,NW,315,0.0,-999.0,53,-99.99,,,0.00,Acu-Link.com,2013-09-06 22:35:00,
2013-09-06 18:51:00,79.9,65.2,29.95,South,180,0.0,-999.0,61,-99.99,,,0.00,Acu-Link.com,2013-09-06 22:51:00,
2013-09-06 19:06:00,77.7,64.5,29.95,SE,135,0.0,-999.0,64,-99.99,,,0.00,Acu-Link.com,2013-09-06 23:06:00,
2013-09-06 19:21:00,75.6,65.1,29.95,SE,135,0.0,-999.0,70,-99.99,,,0.00,Acu-Link.com,2013-09-06 23:21:00,
2013-09-06 19:36:00,73.8,65.7,29.95,SE,135,0.0,-999.0,76,-99.99,,,0.00,Acu-Link.com,2013-09-06 23:36:00,
2013-09-06 19:52:00,72.0,65.5,29.96,SE,135,0.0,-999.0,80,-99.99,,,0.00,Acu-Link.com,2013-09-06 23:52:00,
2013-09-06 20:07:00,70.3,65.9,29.95,SE,135,0.0,-999.0,86,-99.99,,,0.00,Acu-Link.com,2013-09-07 00:07:00,
2013-09-06 20:22:00,69.4,66.0,29.97,SE,135,0.0,-999.0,89,-99.99,,,0.00,Acu-Link.com,2013-09-07 00:22:00,
2013-09-06 20:37:00,68.7,65.3,29.97,SE,135,0.0,-999.0,89,-99.99,,,0.00,Acu-Link.com,2013-09-07 00:37:00,
2013-09-06 20:52:00,68.0,64.6,29.97,SE,135,0.0,-999.0,89,-99.99,,,0.00,Acu-Link.com,2013-09-07 00:52:00,
2013-09-06 21:08:00,67.3,65.2,29.97,SE,135,0.0,-999.0,93,-99.99,,,0.00,Acu-Link.com,2013-09-07 01:08:00,
2013-09-06 21:23:00,66.6,64.2,29.97,SE,135,0.0,-999.0,92,-99.99,,,0.00,Acu-Link.com,2013-09-07 01:23:00,
2013-09-06 21:38:00,66.2,64.4,29.98,SE,135,0.0,-999.0,94,-99.99,,,0.00,Acu-Link.com,2013-09-07 01:38:00,
2013-09-06 21:53:00,66.0,64.5,29.98,SSE,157,0.0,-999.0,95,-99.99,,,0.00,Acu-Link.com,2013-09-07 01:53:00,
2013-09-06 22:08:00,66.4,64.9,29.99,SW,225,0.0,-999.0,95,-99.99,,,0.00,Acu-Link.com,2013-09-07 02:08:00,
2013-09-06 22:24:00,66.4,64.6,29.99,SW,225,0.0,-999.0,94,-99.99,,,0.00,Acu-Link.com,2013-09-07 02:24:00,
2013-09-06 22:39:00,66.2,64.4,29.99,SW,225,0.0,-999.0,94,-99.99,,,0.00,Acu-Link.com,2013-09-07 02:39:00,
2013-09-06 22:54:00,65.7,64.2,29.99,SW,225,0.0,-999.0,95,-99.99,,,0.00,Acu-Link.com,2013-09-07 02:54:00,
2013-09-06 23:09:00,65.1,63.3,29.99,SW,225,0.0,-999.0,94,-99.99,,,0.00,Acu-Link.com,2013-09-07 03:09:00,
2013-09-06 23:24:00,64.8,63.9,29.99,SW,225,0.0,-999.0,97,-99.99,,,0.00,Acu-Link.com,2013-09-07 03:24:00,
2013-09-06 23:40:00,64.2,63.3,29.99,SW,225,0.0,-999.0,97,-99.99,,,0.00,Acu-Link.com,2013-09-07 03:40:00,
2013-09-06 23:55:00,63.7,62.8,29.99,SW,225,0.0,-999.0,97,-99.99,,,0.00,Acu-Link.com,2013-09-07 03:55:00,